Terminal Aerodrome Forecast
Issued by NWS Austin/San Antonio, TX

Home | Current Version | Previous Version | Text Only | Print | Product List | Glossary On
Versions: 1 2 3 4 5 6 7 8 9 10 11 12 13 14 15 16 17 18 19 20 21 22
000
FTUS44 KEWX 201400 AAA
TAFDRT
TAF AMD
KDRT 201404Z 2014/2112 11010KT P6SM OVC026
     FM201500 14013G23KT P6SM FEW060
     FM210400 10012KT P6SM SCT250=

USA.gov is the U.S. government's official web portal to all federal, state and local government web resources and services.